Terminal Aerodrome Forecast
Issued by NWS Northern Indiana

Home | Current Version | Previous Version | Text Only | Print | Product List | Glossary Off
Versions: 1 2 3 4 5 6 7 8 9 10 11 12 13 14

000
FTUS43 KIWX 261100
TAFFWA
TAF
KFWA 261134Z 2612/2712 34004KT 2SM -RASN BR BKN008 OVC012
     FM261400 32008KT P6SM OVC020
     FM261800 30012G18KT P6SM BKN035
     FM270000 32008KT P6SM SCT030 BKN150=

USA.gov is the U.S. government's official web portal to all federal, state and local government web resources and services.